Anselmo, Nebraska
Current Conditions -  °F | °C
As of 4:53 PM on Tuesday 21 Oct 2014 (Local Time) from KBBW Reporting Station
Clear Clear  
Wind Chill: 75°   Ceiling: Unl
Heat Index: 75°   Visibility: 10mi
Dew Point: 56°   Wind: 20mph
Humidity: 51%   Direction: 160°SSE
Pressure: 29.93"   Gusts: 29mph
Location:  41.62°N, 99.87°W
Report Text: KBBW 212153Z AUTO 16017G25KT 10SM CLR 24/13 A2993 RMK AO2 PK WND 16027/2112 SLP125 T02390133
Loading
Personal Weather Stations






























Interactive Weather Map
Tropical Storm Tracking
New forecast layout! Learn more

10-Day Weather Forecast

Advertisements
Track Severe Weather on mobile